Time;durP1;ratioP1;P1;durP2;ratioP2;P2;SDS_P1;SDS_P2;PMS_P1;PMS_P2;Temp;Humidity;BMP_temperature;BMP_pressure;BME280_temperature;BME280_humidity;BME280_pressure;Samples;Min_cycle;Max_cycle;Signal;HPM_P1;HPM_P2
2022/09/21 00:00:44;;;;;;;3.70;2.10;;;;;;;12.63;100.00;100652.02;676611;1271;137941;-96
2022/09/21 00:16:07;;;;;;;4.80;1.90;;;;;;;12.67;100.00;100664.42;676935;1268;139979;-88
2022/09/21 00:31:16;;;;;;;3.40;2.20;;;;;;;12.65;100.00;100665.63;675182;1267;141477;-94
2022/09/21 00:46:27;;;;;;;;;;;;;;;12.59;100.00;100666.24;673754;1279;138495;-91
2022/09/21 01:01:30;;;;;;;5.90;3.20;;;;;;;12.55;100.00;100670.94;672488;1278;125574;-95
2022/09/21 01:16:49;;;;;;;6.90;3.10;;;;;;;12.47;100.00;100684.59;672073;1278;138832;-93
2022/09/21 01:32:08;;;;;;;;;;;;;;;12.54;100.00;100688.46;674235;1277;138994;-96
2022/09/21 01:47:13;;;;;;;6.70;3.30;;;;;;;12.56;100.00;100698.23;675399;1277;125504;-94
2022/09/21 02:02:32;;;;;;;9.30;4.10;;;;;;;12.54;100.00;100703.48;678456;1268;137682;31
2022/09/21 02:17:45;;;;;;;6.60;2.90;;;;;;;12.44;100.00;100696.63;678107;1270;138079;-92
2022/09/21 02:33:19;;;;;;;6.10;3.10;;;;;;;12.46;100.00;100713.48;677089;1270;138486;-93
2022/09/21 02:48:55;;;;;;;6.00;2.20;;;;;;;12.38;100.00;100717.75;674249;1280;137955;-96
2022/09/21 03:03:59;;;;;;;7.60;4.20;;;;;;;12.18;100.00;100732.83;677332;1268;138829;-96
2022/09/21 03:19:03;;;;;;;8.10;3.10;;;;;;;12.23;100.00;100736.25;673498;1280;139042;-94
2022/09/21 03:34:07;;;;;;;5.00;2.40;;;;;;;12.29;100.00;100734.77;677544;1270;139501;-94
2022/09/21 03:49:10;;;;;;;5.00;2.10;;;;;;;12.24;100.00;100748.05;677005;1268;138878;-94
2022/09/21 04:04:34;;;;;;;4.40;2.20;;;;;;;12.12;100.00;100763.64;655473;1311;1280122;-92
2022/09/21 04:19:37;;;;;;;6.40;2.10;;;;;;;12.11;100.00;100771.98;671601;1279;138346;-94
2022/09/21 04:34:41;;;;;;;8.80;2.90;;;;;;;12.17;100.00;100784.81;667906;1281;138509;-94
2022/09/21 04:49:44;;;;;;;4.10;1.80;;;;;;;12.19;100.00;100791.61;666663;1289;138315;-94
2022/09/21 05:04:48;;;;;;;2.50;1.80;;;;;;;12.13;100.00;100803.16;667775;1281;139310;-92
2022/09/21 05:19:53;;;;;;;3.70;2.30;;;;;;;12.16;100.00;100808.88;671823;1280;138565;-94
2022/09/21 05:35:14;;;;;;;3.50;2.30;;;;;;;12.44;100.00;100820.69;667942;1281;138768;-92
2022/09/21 05:50:24;;;;;;;10.70;5.50;;;;;;;12.65;100.00;100843.20;665118;1281;139397;-92
2022/09/21 06:05:27;;;;;;;11.80;6.10;;;;;;;12.95;100.00;100848.16;669131;1281;138600;-93
2022/09/21 06:20:31;;;;;;;13.00;5.80;;;;;;;13.31;100.00;100852.52;670534;1281;139671;-93
2022/09/21 06:35:36;;;;;;;5.70;2.50;;;;;;;13.65;100.00;100842.56;664378;1280;140118;-94
2022/09/21 06:50:39;;;;;;;6.80;3.40;;;;;;;13.90;100.00;100852.11;666365;1280;138894;-96
2022/09/21 07:05:46;;;;;;;8.80;4.30;;;;;;;14.06;100.00;100867.10;668054;1280;138892;-91
2022/09/21 07:20:49;;;;;;;4.30;2.60;;;;;;;14.33;100.00;100888.67;670113;1278;140391;-94
2022/09/21 07:35:57;;;;;;;10.00;4.00;;;;;;;14.19;100.00;100901.64;668818;1280;140551;-93
2022/09/21 07:51:12;;;;;;;7.50;3.30;;;;;;;14.44;100.00;100903.63;668336;1280;139700;-94
2022/09/21 08:06:15;;;;;;;8.10;3.00;;;;;;;14.88;100.00;100906.88;671701;1280;139739;-92
2022/09/21 08:21:21;;;;;;;2.90;1.80;;;;;;;15.64;100.00;100909.85;673251;1280;139377;-93
2022/09/21 08:36:25;;;;;;;12.00;2.10;;;;;;;16.44;100.00;100911.97;661690;1280;139800;-92
2022/09/21 08:51:39;;;;;;;6.60;1.90;;;;;;;16.05;99.96;100924.14;661049;1280;140147;-90
2022/09/21 09:07:07;;;;;;;3.30;1.60;;;;;;;16.02;100.00;100925.86;659210;1280;139992;-90
2022/09/21 09:22:16;;;;;;;4.80;1.30;;;;;;;16.54;99.34;100920.58;661271;1281;139671;-92
2022/09/21 09:37:23;;;;;;;;;;;;;;;17.42;95.48;100931.00;661532;1277;139107;-91
2022/09/21 09:52:27;;;;;;;35.40;12.60;;;;;;;17.36;93.42;100932.55;660766;1277;125720;-90
2022/09/21 10:07:36;;;;;;;2.60;1.50;;;;;;;16.06;94.48;100936.43;661336;1277;140246;-91
2022/09/21 10:22:47;;;;;;;3.90;1.00;;;;;;;16.30;97.60;100933.92;661956;1277;139016;-88
2022/09/21 10:38:16;;;;;;;3.00;0.90;;;;;;;18.36;94.51;100938.95;665731;1277;139651;-89
2022/09/21 10:53:31;;;;;;;2.80;1.40;;;;;;;18.60;87.07;100924.64;661204;1276;138841;-90
2022/09/21 11:08:41;;;;;;;4.30;2.60;;;;;;;19.84;82.98;100914.30;659860;1277;140830;-90
2022/09/21 11:23:44;;;;;;;3.40;1.00;;;;;;;21.25;78.43;100910.66;665710;1277;143344;-88
2022/09/21 11:39:25;;;;;;;2.40;1.20;;;;;;;21.45;73.53;100910.88;663945;1277;139184;-90
2022/09/21 11:54:50;;;;;;;2.10;0.60;;;;;;;21.70;70.67;100907.55;663960;1277;139056;-91
2022/09/21 12:10:00;;;;;;;2.40;1.40;;;;;;;21.30;66.42;100902.89;656596;1277;139124;-88
2022/09/21 12:25:15;;;;;;;26.60;15.00;;;;;;;19.46;68.83;100901.37;658144;1276;138379;-92
2022/09/21 12:40:36;;;;;;;2.50;0.90;;;;;;;21.02;69.21;100889.41;657605;1277;140326;-92
2022/09/21 12:55:55;;;;;;;3.60;1.80;;;;;;;20.24;67.59;100898.52;657904;1277;139016;-89
2022/09/21 13:11:06;;;;;;;16.30;9.40;;;;;;;17.12;74.97;100907.50;657666;1277;138087;-91
2022/09/21 13:26:12;;;;;;;7.50;4.70;;;;;;;17.22;81.16;100903.98;657659;1278;138892;-92
2022/09/21 13:41:16;;;;;;;6.00;3.80;;;;;;;17.96;82.44;100902.77;659369;1277;140166;-91
2022/09/21 13:56:24;;;;;;;5.90;2.30;;;;;;;19.81;81.50;100898.91;659245;1277;139611;-89
2022/09/21 14:11:30;;;;;;;11.50;3.90;;;;;;;22.93;73.52;100896.81;659040;1277;139361;-89
2022/09/21 14:26:41;;;;;;;4.90;2.70;;;;;;;22.42;71.23;100899.91;659086;1277;138713;-90
2022/09/21 14:41:48;;;;;;;9.30;3.30;;;;;;;18.39;74.94;100903.38;659551;1277;138313;-90
2022/09/21 14:57:04;;;;;;;14.20;7.90;;;;;;;17.14;79.12;100902.87;660029;1277;139550;-89
2022/09/21 15:12:24;;;;;;;11.00;7.30;;;;;;;16.65;82.61;100909.14;659421;1277;140645;-87
2022/09/21 15:27:32;;;;;;;10.50;7.30;;;;;;;17.22;84.55;100912.26;658606;1277;144892;-90
2022/09/21 15:43:05;;;;;;;12.90;5.70;;;;;;;17.41;85.60;100918.74;658966;1277;141956;-94
2022/09/21 15:58:30;;;;;;;9.60;5.70;;;;;;;16.86;86.32;100923.33;659630;1277;139831;-91
2022/09/21 16:29:18;;;;;;;5.80;4.30;;;;;;;17.44;86.60;100939.55;658655;1277;140536;-91
2022/09/21 16:44:24;;;;;;;13.10;5.80;;;;;;;16.49;86.98;100954.84;659649;1277;138763;-89
2022/09/21 16:59:29;;;;;;;79.40;29.70;;;;;;;15.63;89.14;100962.53;659103;1277;139717;-91
2022/09/21 17:14:35;;;;;;;22.50;11.10;;;;;;;14.98;91.36;100972.73;658619;1277;139037;-88
2022/09/21 17:29:45;;;;;;;14.80;7.50;;;;;;;14.52;92.18;100991.94;660700;1277;139230;-89
2022/09/21 17:45:02;;;;;;;13.70;7.50;;;;;;;14.22;93.85;100998.42;659503;1279;139893;-91
2022/09/21 18:00:21;;;;;;;15.50;8.60;;;;;;;13.91;94.98;101003.68;658681;1277;139647;-87
2022/09/21 18:15:43;;;;;;;92.60;32.50;;;;;;;13.68;95.93;101009.61;659323;1277;140652;-89
2022/09/21 18:31:03;;;;;;;76.00;41.40;;;;;;;13.32;97.39;101018.04;658526;1279;139761;-89
2022/09/21 18:46:13;;;;;;;52.50;22.90;;;;;;;13.10;98.17;101017.85;658527;1277;141431;-90
2022/09/21 19:01:20;;;;;;;31.40;13.80;;;;;;;12.92;99.21;101024.17;657797;1280;140683;-91
2022/09/21 19:16:37;;;;;;;23.70;13.30;;;;;;;12.97;99.72;101018.97;657683;1278;139925;-90
2022/09/21 19:31:41;;;;;;;10.60;6.70;;;;;;;12.96;99.86;101022.08;657764;1279;139013;-90
2022/09/21 19:47:09;;;;;;;12.70;7.10;;;;;;;12.96;99.91;101020.25;657377;1280;139179;-91
2022/09/21 20:02:31;;;;;;;12.50;5.60;;;;;;;12.96;100.00;101027.98;658058;1280;140165;-89
2022/09/21 20:17:44;;;;;;;15.60;6.20;;;;;;;12.74;100.00;101026.91;657774;1280;139851;-91
2022/09/21 20:32:55;;;;;;;11.80;5.30;;;;;;;12.44;100.00;101028.94;660265;1280;139596;-90
2022/09/21 20:48:11;;;;;;;7.50;3.90;;;;;;;12.23;100.00;101028.95;661050;1280;139682;-90
2022/09/21 21:03:16;;;;;;;6.50;3.40;;;;;;;12.01;100.00;101024.02;660702;1279;139243;-89
2022/09/21 21:18:19;;;;;;;9.30;3.60;;;;;;;11.87;100.00;101019.89;661142;1278;139677;-90
2022/09/21 21:33:23;;;;;;;7.80;3.70;;;;;;;11.72;100.00;101018.33;660731;1280;140642;-91
2022/09/21 21:48:26;;;;;;;7.70;3.70;;;;;;;11.55;100.00;101005.81;661382;1280;139679;-88
2022/09/21 22:03:29;;;;;;;13.20;5.20;;;;;;;11.37;100.00;101007.27;660524;1279;138998;-89
2022/09/21 22:18:37;;;;;;;9.70;4.70;;;;;;;11.13;100.00;101007.90;659754;1278;139578;-89
2022/09/21 22:33:40;;;;;;;5.80;3.20;;;;;;;11.06;100.00;101002.71;660702;1278;139742;-91
2022/09/21 22:48:44;;;;;;;8.80;3.80;;;;;;;11.00;100.00;101003.68;664914;1279;140801;-88
2022/09/21 23:03:49;;;;;;;12.40;5.50;;;;;;;10.81;100.00;101001.48;659526;1280;140441;-89
2022/09/21 23:18:54;;;;;;;13.10;5.90;;;;;;;10.60;100.00;101002.58;657943;1280;139207;-91
2022/09/21 23:34:09;;;;;;;14.30;6.50;;;;;;;10.37;100.00;101008.64;657878;1279;140165;-90
2022/09/21 23:49:14;;;;;;;11.60;5.80;;;;;;;10.14;100.00;101010.52;657464;1280;139187;-90
